sensor_id;sensor_type;location;lat;lon;timestamp;P1;durP1;ratioP1;P2;durP2;ratioP2
8698;SDS011;4386;51.236;6.742;2022-07-29T00:00:14;4.80;;;1.77;;
8698;SDS011;4386;51.236;6.742;2022-07-29T00:01:16;5.67;;;2.30;;
8698;SDS011;4386;51.236;6.742;2022-07-29T00:02:20;3.57;;;1.60;;
8698;SDS011;4386;51.236;6.742;2022-07-29T00:03:21;4.23;;;1.97;;
8698;SDS011;4386;51.236;6.742;2022-07-29T00:04:24;5.83;;;1.80;;
8698;SDS011;4386;51.236;6.742;2022-07-29T00:05:26;5.10;;;2.20;;
8698;SDS011;4386;51.236;6.742;2022-07-29T00:06:30;5.33;;;1.93;;
8698;SDS011;4386;51.236;6.742;2022-07-29T00:07:32;4.60;;;2.13;;
8698;SDS011;4386;51.236;6.742;2022-07-29T00:08:34;3.70;;;2.10;;
8698;SDS011;4386;51.236;6.742;2022-07-29T00:09:36;8.03;;;1.90;;
8698;SDS011;4386;51.236;6.742;2022-07-29T00:10:52;4.77;;;2.07;;
8698;SDS011;4386;51.236;6.742;2022-07-29T00:11:54;6.40;;;1.93;;
8698;SDS011;4386;51.236;6.742;2022-07-29T00:12:59;5.40;;;2.10;;
8698;SDS011;4386;51.236;6.742;2022-07-29T00:14:01;1.90;;;1.80;;
8698;SDS011;4386;51.236;6.742;2022-07-29T00:15:04;5.87;;;2.10;;
8698;SDS011;4386;51.236;6.742;2022-07-29T00:16:06;4.07;;;2.07;;
8698;SDS011;4386;51.236;6.742;2022-07-29T00:17:09;5.83;;;2.40;;
8698;SDS011;4386;51.236;6.742;2022-07-29T00:18:19;5.63;;;2.23;;
8698;SDS011;4386;51.236;6.742;2022-07-29T00:19:21;5.03;;;2.00;;
8698;SDS011;4386;51.236;6.742;2022-07-29T00:20:23;4.00;;;1.93;;
8698;SDS011;4386;51.236;6.742;2022-07-29T00:21:26;2.47;;;1.93;;
8698;SDS011;4386;51.236;6.742;2022-07-29T00:22:29;7.20;;;2.50;;
8698;SDS011;4386;51.236;6.742;2022-07-29T00:23:31;2.67;;;1.97;;
8698;SDS011;4386;51.236;6.742;2022-07-29T00:24:37;4.50;;;2.50;;
8698;SDS011;4386;51.236;6.742;2022-07-29T00:25:39;3.30;;;2.40;;
8698;SDS011;4386;51.236;6.742;2022-07-29T00:26:41;2.87;;;1.70;;
8698;SDS011;4386;51.236;6.742;2022-07-29T00:27:44;11.20;;;2.33;;
8698;SDS011;4386;51.236;6.742;2022-07-29T00:28:46;3.00;;;1.90;;
8698;SDS011;4386;51.236;6.742;2022-07-29T00:29:49;6.00;;;2.20;;
8698;SDS011;4386;51.236;6.742;2022-07-29T00:30:51;3.90;;;2.57;;
8698;SDS011;4386;51.236;6.742;2022-07-29T00:31:53;10.07;;;2.77;;
8698;SDS011;4386;51.236;6.742;2022-07-29T00:32:55;4.47;;;2.20;;
8698;SDS011;4386;51.236;6.742;2022-07-29T00:33:58;5.83;;;2.27;;
8698;SDS011;4386;51.236;6.742;2022-07-29T00:35:00;3.57;;;2.60;;
8698;SDS011;4386;51.236;6.742;2022-07-29T00:36:20;5.90;;;2.57;;
8698;SDS011;4386;51.236;6.742;2022-07-29T00:37:22;2.93;;;1.77;;
8698;SDS011;4386;51.236;6.742;2022-07-29T00:38:26;10.43;;;2.43;;
8698;SDS011;4386;51.236;6.742;2022-07-29T00:39:28;13.90;;;2.43;;
8698;SDS011;4386;51.236;6.742;2022-07-29T00:40:31;4.57;;;2.60;;
8698;SDS011;4386;51.236;6.742;2022-07-29T00:41:33;4.47;;;2.13;;
8698;SDS011;4386;51.236;6.742;2022-07-29T00:42:41;3.70;;;2.40;;
8698;SDS011;4386;51.236;6.742;2022-07-29T00:43:43;3.97;;;2.13;;
8698;SDS011;4386;51.236;6.742;2022-07-29T00:44:46;7.43;;;2.00;;
8698;SDS011;4386;51.236;6.742;2022-07-29T00:45:48;7.40;;;2.03;;
8698;SDS011;4386;51.236;6.742;2022-07-29T00:46:51;4.37;;;2.40;;
8698;SDS011;4386;51.236;6.742;2022-07-29T00:47:53;5.03;;;2.33;;
8698;SDS011;4386;51.236;6.742;2022-07-29T00:48:55;4.47;;;2.30;;
8698;SDS011;4386;51.236;6.742;2022-07-29T00:49:58;8.03;;;2.63;;
8698;SDS011;4386;51.236;6.742;2022-07-29T00:51:01;8.97;;;2.73;;
8698;SDS011;4386;51.236;6.742;2022-07-29T00:52:06;4.00;;;2.00;;
8698;SDS011;4386;51.236;6.742;2022-07-29T00:53:08;6.93;;;2.60;;
8698;SDS011;4386;51.236;6.742;2022-07-29T00:54:15;3.73;;;2.07;;
8698;SDS011;4386;51.236;6.742;2022-07-29T00:55:17;8.60;;;2.97;;
8698;SDS011;4386;51.236;6.742;2022-07-29T00:56:20;2.50;;;2.30;;
8698;SDS011;4386;51.236;6.742;2022-07-29T00:57:21;4.40;;;2.37;;
8698;SDS011;4386;51.236;6.742;2022-07-29T00:58:24;3.57;;;2.60;;
8698;SDS011;4386;51.236;6.742;2022-07-29T00:59:28;4.27;;;1.90;;
8698;SDS011;4386;51.236;6.742;2022-07-29T01:00:39;7.90;;;2.67;;
8698;SDS011;4386;51.236;6.742;2022-07-29T01:01:43;2.30;;;2.00;;
8698;SDS011;4386;51.236;6.742;2022-07-29T01:02:45;2.77;;;2.10;;
8698;SDS011;4386;51.236;6.742;2022-07-29T01:03:50;4.90;;;2.60;;
8698;SDS011;4386;51.236;6.742;2022-07-29T01:04:53;5.20;;;2.23;;
8698;SDS011;4386;51.236;6.742;2022-07-29T01:05:56;4.93;;;1.93;;
8698;SDS011;4386;51.236;6.742;2022-07-29T01:07:00;7.20;;;2.10;;
8698;SDS011;4386;51.236;6.742;2022-07-29T01:08:03;3.20;;;2.20;;
8698;SDS011;4386;51.236;6.742;2022-07-29T01:09:08;4.80;;;2.20;;
8698;SDS011;4386;51.236;6.742;2022-07-29T01:10:18;5.73;;;2.10;;
8698;SDS011;4386;51.236;6.742;2022-07-29T01:11:22;5.03;;;2.20;;
8698;SDS011;4386;51.236;6.742;2022-07-29T01:12:30;6.03;;;2.80;;
8698;SDS011;4386;51.236;6.742;2022-07-29T01:13:35;4.07;;;2.30;;
8698;SDS011;4386;51.236;6.742;2022-07-29T01:14:42;3.93;;;2.17;;
8698;SDS011;4386;51.236;6.742;2022-07-29T01:15:46;7.80;;;2.23;;
8698;SDS011;4386;51.236;6.742;2022-07-29T01:16:54;5.17;;;2.83;;
8698;SDS011;4386;51.236;6.742;2022-07-29T01:18:05;6.23;;;2.47;;
8698;SDS011;4386;51.236;6.742;2022-07-29T01:19:22;8.80;;;2.40;;
8698;SDS011;4386;51.236;6.742;2022-07-29T01:20:41;5.03;;;2.50;;
8698;SDS011;4386;51.236;6.742;2022-07-29T01:22:08;6.10;;;2.30;;
8698;SDS011;4386;51.236;6.742;2022-07-29T01:23:43;3.90;;;1.97;;
8698;SDS011;4386;51.236;6.742;2022-07-29T01:25:05;4.77;;;2.13;;
8698;SDS011;4386;51.236;6.742;2022-07-29T01:26:37;3.80;;;2.20;;
8698;SDS011;4386;51.236;6.742;2022-07-29T01:27:49;6.43;;;2.23;;
8698;SDS011;4386;51.236;6.742;2022-07-29T01:29:05;3.90;;;2.20;;
8698;SDS011;4386;51.236;6.742;2022-07-29T01:30:13;5.23;;;2.50;;
8698;SDS011;4386;51.236;6.742;2022-07-29T01:31:17;3.80;;;2.23;;
8698;SDS011;4386;51.236;6.742;2022-07-29T01:32:27;3.40;;;1.90;;
8698;SDS011;4386;51.236;6.742;2022-07-29T01:33:36;5.97;;;2.67;;
8698;SDS011;4386;51.236;6.742;2022-07-29T01:34:52;5.60;;;2.37;;
8698;SDS011;4386;51.236;6.742;2022-07-29T01:35:58;6.93;;;2.50;;
8698;SDS011;4386;51.236;6.742;2022-07-29T01:37:08;6.13;;;2.47;;
8698;SDS011;4386;51.236;6.742;2022-07-29T01:38:17;6.50;;;2.37;;
8698;SDS011;4386;51.236;6.742;2022-07-29T01:39:25;3.97;;;1.77;;
8698;SDS011;4386;51.236;6.742;2022-07-29T01:40:35;3.97;;;2.30;;
8698;SDS011;4386;51.236;6.742;2022-07-29T01:41:43;2.57;;;1.63;;
8698;SDS011;4386;51.236;6.742;2022-07-29T01:42:54;3.43;;;2.00;;
8698;SDS011;4386;51.236;6.742;2022-07-29T01:44:01;3.43;;;2.00;;
8698;SDS011;4386;51.236;6.742;2022-07-29T01:45:08;4.50;;;2.30;;
8698;SDS011;4386;51.236;6.742;2022-07-29T01:46:14;4.00;;;2.30;;
8698;SDS011;4386;51.236;6.742;2022-07-29T01:47:23;2.67;;;1.97;;
8698;SDS011;4386;51.236;6.742;2022-07-29T01:48:31;6.70;;;2.00;;
8698;SDS011;4386;51.236;6.742;2022-07-29T01:49:43;2.50;;;2.10;;
8698;SDS011;4386;51.236;6.742;2022-07-29T01:50:52;2.40;;;2.00;;
8698;SDS011;4386;51.236;6.742;2022-07-29T01:52:00;7.83;;;2.20;;
8698;SDS011;4386;51.236;6.742;2022-07-29T01:53:08;7.13;;;2.37;;
8698;SDS011;4386;51.236;6.742;2022-07-29T01:54:14;3.03;;;2.27;;
8698;SDS011;4386;51.236;6.742;2022-07-29T01:55:22;3.63;;;2.20;;
8698;SDS011;4386;51.236;6.742;2022-07-29T01:56:31;3.77;;;1.87;;
8698;SDS011;4386;51.236;6.742;2022-07-29T01:57:34;3.20;;;2.13;;
8698;SDS011;4386;51.236;6.742;2022-07-29T01:58:41;5.17;;;2.23;;
8698;SDS011;4386;51.236;6.742;2022-07-29T01:59:45;6.60;;;1.90;;
8698;SDS011;4386;51.236;6.742;2022-07-29T02:00:50;10.13;;;2.90;;
8698;SDS011;4386;51.236;6.742;2022-07-29T02:01:54;4.23;;;1.70;;
8698;SDS011;4386;51.236;6.742;2022-07-29T02:03:00;3.87;;;2.03;;
8698;SDS011;4386;51.236;6.742;2022-07-29T02:04:06;3.63;;;2.00;;
8698;SDS011;4386;51.236;6.742;2022-07-29T02:05:12;6.70;;;2.37;;
8698;SDS011;4386;51.236;6.742;2022-07-29T02:06:19;3.00;;;2.30;;
8698;SDS011;4386;51.236;6.742;2022-07-29T02:07:23;4.90;;;2.10;;
8698;SDS011;4386;51.236;6.742;2022-07-29T02:08:28;4.87;;;2.50;;
8698;SDS011;4386;51.236;6.742;2022-07-29T02:09:32;5.27;;;2.00;;
8698;SDS011;4386;51.236;6.742;2022-07-29T02:10:36;2.60;;;1.83;;
8698;SDS011;4386;51.236;6.742;2022-07-29T02:11:42;4.80;;;2.90;;
8698;SDS011;4386;51.236;6.742;2022-07-29T02:12:49;2.90;;;2.60;;
8698;SDS011;4386;51.236;6.742;2022-07-29T02:13:51;3.87;;;2.10;;
8698;SDS011;4386;51.236;6.742;2022-07-29T02:14:56;5.13;;;2.90;;
8698;SDS011;4386;51.236;6.742;2022-07-29T02:16:03;5.03;;;3.27;;
8698;SDS011;4386;51.236;6.742;2022-07-29T02:17:08;3.43;;;2.00;;
8698;SDS011;4386;51.236;6.742;2022-07-29T02:18:15;6.20;;;2.87;;
8698;SDS011;4386;51.236;6.742;2022-07-29T02:19:21;3.80;;;2.03;;
8698;SDS011;4386;51.236;6.742;2022-07-29T02:20:24;6.80;;;2.60;;
8698;SDS011;4386;51.236;6.742;2022-07-29T02:21:28;5.67;;;2.23;;
8698;SDS011;4386;51.236;6.742;2022-07-29T02:22:33;6.77;;;2.30;;
8698;SDS011;4386;51.236;6.742;2022-07-29T02:23:39;10.77;;;2.57;;
8698;SDS011;4386;51.236;6.742;2022-07-29T02:24:52;3.63;;;2.90;;
8698;SDS011;4386;51.236;6.742;2022-07-29T02:25:56;5.53;;;2.17;;
8698;SDS011;4386;51.236;6.742;2022-07-29T02:26:58;3.80;;;2.27;;
8698;SDS011;4386;51.236;6.742;2022-07-29T02:28:03;6.80;;;2.70;;
8698;SDS011;4386;51.236;6.742;2022-07-29T02:29:07;3.17;;;2.30;;
8698;SDS011;4386;51.236;6.742;2022-07-29T02:30:12;4.80;;;2.23;;
8698;SDS011;4386;51.236;6.742;2022-07-29T02:31:16;5.43;;;3.17;;
8698;SDS011;4386;51.236;6.742;2022-07-29T02:32:21;4.47;;;2.97;;
8698;SDS011;4386;51.236;6.742;2022-07-29T02:33:26;4.93;;;2.93;;
8698;SDS011;4386;51.236;6.742;2022-07-29T02:34:29;7.83;;;3.17;;
8698;SDS011;4386;51.236;6.742;2022-07-29T02:35:34;7.83;;;2.80;;
8698;SDS011;4386;51.236;6.742;2022-07-29T02:36:37;5.73;;;3.50;;
8698;SDS011;4386;51.236;6.742;2022-07-29T02:37:39;5.87;;;3.30;;
8698;SDS011;4386;51.236;6.742;2022-07-29T02:38:45;6.30;;;3.57;;
8698;SDS011;4386;51.236;6.742;2022-07-29T02:39:53;5.90;;;2.90;;
8698;SDS011;4386;51.236;6.742;2022-07-29T02:40:57;5.57;;;3.40;;
8698;SDS011;4386;51.236;6.742;2022-07-29T02:42:02;8.53;;;3.53;;
8698;SDS011;4386;51.236;6.742;2022-07-29T02:43:07;5.43;;;3.40;;
8698;SDS011;4386;51.236;6.742;2022-07-29T02:44:11;6.60;;;3.03;;
8698;SDS011;4386;51.236;6.742;2022-07-29T02:45:15;3.80;;;2.70;;
8698;SDS011;4386;51.236;6.742;2022-07-29T02:46:19;9.87;;;3.77;;
8698;SDS011;4386;51.236;6.742;2022-07-29T02:47:31;11.93;;;3.47;;
8698;SDS011;4386;51.236;6.742;2022-07-29T02:48:48;4.83;;;2.27;;
8698;SDS011;4386;51.236;6.742;2022-07-29T02:49:57;5.80;;;2.73;;
8698;SDS011;4386;51.236;6.742;2022-07-29T02:51:05;3.63;;;2.70;;
8698;SDS011;4386;51.236;6.742;2022-07-29T02:52:35;3.20;;;2.90;;
8698;SDS011;4386;51.236;6.742;2022-07-29T02:53:42;5.43;;;2.23;;
8698;SDS011;4386;51.236;6.742;2022-07-29T02:54:48;8.57;;;2.80;;
8698;SDS011;4386;51.236;6.742;2022-07-29T02:55:57;6.20;;;2.80;;
8698;SDS011;4386;51.236;6.742;2022-07-29T02:57:00;8.10;;;2.57;;
8698;SDS011;4386;51.236;6.742;2022-07-29T02:58:09;4.73;;;2.40;;
8698;SDS011;4386;51.236;6.742;2022-07-29T02:59:16;5.07;;;2.57;;
8698;SDS011;4386;51.236;6.742;2022-07-29T03:00:24;5.43;;;2.60;;
8698;SDS011;4386;51.236;6.742;2022-07-29T03:01:31;4.53;;;2.47;;
8698;SDS011;4386;51.236;6.742;2022-07-29T03:02:36;5.13;;;2.50;;
8698;SDS011;4386;51.236;6.742;2022-07-29T03:03:39;3.37;;;2.20;;
8698;SDS011;4386;51.236;6.742;2022-07-29T03:04:46;10.70;;;2.43;;
8698;SDS011;4386;51.236;6.742;2022-07-29T03:05:52;3.40;;;2.40;;
8698;SDS011;4386;51.236;6.742;2022-07-29T03:06:56;7.73;;;2.30;;
8698;SDS011;4386;51.236;6.742;2022-07-29T03:08:02;4.23;;;2.10;;
8698;SDS011;4386;51.236;6.742;2022-07-29T03:09:06;3.80;;;2.07;;
8698;SDS011;4386;51.236;6.742;2022-07-29T03:10:13;5.70;;;2.43;;
8698;SDS011;4386;51.236;6.742;2022-07-29T03:11:16;3.83;;;1.90;;
8698;SDS011;4386;51.236;6.742;2022-07-29T03:12:40;8.00;;;2.23;;
8698;SDS011;4386;51.236;6.742;2022-07-29T03:13:43;5.33;;;2.30;;
8698;SDS011;4386;51.236;6.742;2022-07-29T03:14:46;10.90;;;2.40;;
8698;SDS011;4386;51.236;6.742;2022-07-29T03:15:49;3.40;;;2.53;;
8698;SDS011;4386;51.236;6.742;2022-07-29T03:16:53;6.40;;;2.33;;
8698;SDS011;4386;51.236;6.742;2022-07-29T03:17:56;3.53;;;2.00;;
8698;SDS011;4386;51.236;6.742;2022-07-29T03:18:58;8.63;;;2.20;;
8698;SDS011;4386;51.236;6.742;2022-07-29T03:20:02;6.87;;;2.13;;
8698;SDS011;4386;51.236;6.742;2022-07-29T03:21:04;3.77;;;2.30;;
8698;SDS011;4386;51.236;6.742;2022-07-29T03:22:06;3.63;;;2.20;;
8698;SDS011;4386;51.236;6.742;2022-07-29T03:23:08;4.10;;;2.00;;
8698;SDS011;4386;51.236;6.742;2022-07-29T03:24:23;1.90;;;1.80;;
8698;SDS011;4386;51.236;6.742;2022-07-29T03:25:26;6.80;;;1.97;;
8698;SDS011;4386;51.236;6.742;2022-07-29T03:26:29;3.57;;;1.90;;
8698;SDS011;4386;51.236;6.742;2022-07-29T03:27:30;6.53;;;1.90;;
8698;SDS011;4386;51.236;6.742;2022-07-29T03:28:33;4.90;;;2.00;;
8698;SDS011;4386;51.236;6.742;2022-07-29T03:29:37;6.90;;;2.10;;
8698;SDS011;4386;51.236;6.742;2022-07-29T03:30:40;6.07;;;1.97;;
8698;SDS011;4386;51.236;6.742;2022-07-29T03:31:44;3.17;;;2.03;;
8698;SDS011;4386;51.236;6.742;2022-07-29T03:32:50;8.03;;;2.50;;
8698;SDS011;4386;51.236;6.742;2022-07-29T03:33:54;7.50;;;2.93;;
8698;SDS011;4386;51.236;6.742;2022-07-29T03:34:55;3.80;;;2.27;;
8698;SDS011;4386;51.236;6.742;2022-07-29T03:35:58;7.50;;;2.47;;
8698;SDS011;4386;51.236;6.742;2022-07-29T03:37:00;7.53;;;3.07;;
8698;SDS011;4386;51.236;6.742;2022-07-29T03:38:07;10.10;;;2.83;;
8698;SDS011;4386;51.236;6.742;2022-07-29T03:39:09;4.67;;;2.60;;
8698;SDS011;4386;51.236;6.742;2022-07-29T03:40:16;4.30;;;2.40;;
8698;SDS011;4386;51.236;6.742;2022-07-29T03:41:23;4.97;;;2.60;;
8698;SDS011;4386;51.236;6.742;2022-07-29T03:42:28;2.87;;;2.40;;
8698;SDS011;4386;51.236;6.742;2022-07-29T03:43:35;5.20;;;2.60;;
8698;SDS011;4386;51.236;6.742;2022-07-29T03:44:49;8.00;;;3.00;;
8698;SDS011;4386;51.236;6.742;2022-07-29T03:45:53;4.83;;;2.80;;
8698;SDS011;4386;51.236;6.742;2022-07-29T03:46:57;6.60;;;2.40;;
8698;SDS011;4386;51.236;6.742;2022-07-29T03:48:06;5.50;;;2.70;;
8698;SDS011;4386;51.236;6.742;2022-07-29T03:49:09;5.23;;;2.60;;
8698;SDS011;4386;51.236;6.742;2022-07-29T03:50:14;5.70;;;2.97;;
8698;SDS011;4386;51.236;6.742;2022-07-29T03:51:17;4.53;;;2.80;;
8698;SDS011;4386;51.236;6.742;2022-07-29T03:52:34;5.10;;;2.80;;
8698;SDS011;4386;51.236;6.742;2022-07-29T03:53:37;4.70;;;2.60;;
8698;SDS011;4386;51.236;6.742;2022-07-29T03:54:39;6.77;;;2.90;;
8698;SDS011;4386;51.236;6.742;2022-07-29T03:55:42;5.13;;;2.90;;
8698;SDS011;4386;51.236;6.742;2022-07-29T03:56:46;7.00;;;2.70;;
8698;SDS011;4386;51.236;6.742;2022-07-29T03:57:51;3.10;;;2.87;;
8698;SDS011;4386;51.236;6.742;2022-07-29T03:58:53;6.33;;;2.90;;
8698;SDS011;4386;51.236;6.742;2022-07-29T03:59:57;6.07;;;3.00;;
8698;SDS011;4386;51.236;6.742;2022-07-29T04:01:00;2.90;;;2.50;;
8698;SDS011;4386;51.236;6.742;2022-07-29T04:02:03;7.33;;;4.00;;
8698;SDS011;4386;51.236;6.742;2022-07-29T04:03:08;4.60;;;2.77;;
8698;SDS011;4386;51.236;6.742;2022-07-29T04:04:12;5.63;;;2.80;;
8698;SDS011;4386;51.236;6.742;2022-07-29T04:05:15;4.67;;;3.03;;
8698;SDS011;4386;51.236;6.742;2022-07-29T04:06:19;3.87;;;3.17;;
8698;SDS011;4386;51.236;6.742;2022-07-29T04:07:22;5.90;;;3.20;;
8698;SDS011;4386;51.236;6.742;2022-07-29T04:08:23;4.23;;;2.67;;
8698;SDS011;4386;51.236;6.742;2022-07-29T04:09:26;6.60;;;2.97;;
8698;SDS011;4386;51.236;6.742;2022-07-29T04:10:28;7.57;;;3.37;;
8698;SDS011;4386;51.236;6.742;2022-07-29T04:11:34;5.13;;;3.10;;
8698;SDS011;4386;51.236;6.742;2022-07-29T04:12:57;3.60;;;3.30;;
8698;SDS011;4386;51.236;6.742;2022-07-29T04:14:00;9.67;;;3.43;;
8698;SDS011;4386;51.236;6.742;2022-07-29T04:15:02;5.97;;;3.70;;
8698;SDS011;4386;51.236;6.742;2022-07-29T04:16:05;8.07;;;3.70;;
8698;SDS011;4386;51.236;6.742;2022-07-29T04:17:07;3.90;;;3.50;;
8698;SDS011;4386;51.236;6.742;2022-07-29T04:18:11;9.07;;;3.40;;
8698;SDS011;4386;51.236;6.742;2022-07-29T04:19:13;7.43;;;3.57;;
8698;SDS011;4386;51.236;6.742;2022-07-29T04:20:15;6.73;;;3.70;;
8698;SDS011;4386;51.236;6.742;2022-07-29T04:21:17;5.63;;;4.03;;
8698;SDS011;4386;51.236;6.742;2022-07-29T04:22:20;7.00;;;3.53;;
8698;SDS011;4386;51.236;6.742;2022-07-29T04:23:23;6.47;;;4.23;;
8698;SDS011;4386;51.236;6.742;2022-07-29T04:24:25;8.70;;;4.20;;
8698;SDS011;4386;51.236;6.742;2022-07-29T04:25:28;7.37;;;4.10;;
8698;SDS011;4386;51.236;6.742;2022-07-29T04:26:30;4.57;;;3.63;;
8698;SDS011;4386;51.236;6.742;2022-07-29T04:27:32;5.67;;;4.20;;
8698;SDS011;4386;51.236;6.742;2022-07-29T04:28:34;10.70;;;4.60;;
8698;SDS011;4386;51.236;6.742;2022-07-29T04:29:36;9.30;;;4.70;;
8698;SDS011;4386;51.236;6.742;2022-07-29T04:30:57;9.33;;;4.77;;
8698;SDS011;4386;51.236;6.742;2022-07-29T04:31:59;12.63;;;6.30;;
8698;SDS011;4386;51.236;6.742;2022-07-29T04:33:02;10.67;;;6.20;;
8698;SDS011;4386;51.236;6.742;2022-07-29T04:34:07;9.77;;;6.80;;
8698;SDS011;4386;51.236;6.742;2022-07-29T04:35:10;11.97;;;6.13;;
8698;SDS011;4386;51.236;6.742;2022-07-29T04:36:11;13.23;;;5.83;;
8698;SDS011;4386;51.236;6.742;2022-07-29T04:37:29;11.77;;;5.93;;
8698;SDS011;4386;51.236;6.742;2022-07-29T04:38:31;12.37;;;6.37;;
8698;SDS011;4386;51.236;6.742;2022-07-29T04:39:34;9.07;;;5.57;;
8698;SDS011;4386;51.236;6.742;2022-07-29T04:40:35;10.80;;;5.30;;
8698;SDS011;4386;51.236;6.742;2022-07-29T04:41:38;11.63;;;4.47;;
8698;SDS011;4386;51.236;6.742;2022-07-29T04:42:43;8.10;;;4.20;;
8698;SDS011;4386;51.236;6.742;2022-07-29T04:43:48;7.90;;;4.40;;
8698;SDS011;4386;51.236;6.742;2022-07-29T04:44:50;5.53;;;3.80;;
8698;SDS011;4386;51.236;6.742;2022-07-29T04:45:52;4.60;;;3.40;;
8698;SDS011;4386;51.236;6.742;2022-07-29T04:46:55;3.90;;;3.27;;
8698;SDS011;4386;51.236;6.742;2022-07-29T04:47:58;8.13;;;3.70;;
8698;SDS011;4386;51.236;6.742;2022-07-29T04:49:00;7.10;;;3.23;;
8698;SDS011;4386;51.236;6.742;2022-07-29T04:50:04;7.77;;;3.00;;
8698;SDS011;4386;51.236;6.742;2022-07-29T04:51:08;8.37;;;3.33;;
8698;SDS011;4386;51.236;6.742;2022-07-29T04:52:10;4.27;;;2.63;;
8698;SDS011;4386;51.236;6.742;2022-07-29T04:53:12;3.80;;;3.37;;
8698;SDS011;4386;51.236;6.742;2022-07-29T04:54:14;5.43;;;3.10;;
8698;SDS011;4386;51.236;6.742;2022-07-29T04:55:17;4.20;;;3.33;;
8698;SDS011;4386;51.236;6.742;2022-07-29T04:56:20;11.97;;;4.13;;
8698;SDS011;4386;51.236;6.742;2022-07-29T04:57:21;8.83;;;4.40;;
8698;SDS011;4386;51.236;6.742;2022-07-29T04:58:24;8.27;;;3.10;;
8698;SDS011;4386;51.236;6.742;2022-07-29T04:59:27;7.50;;;3.50;;
8698;SDS011;4386;51.236;6.742;2022-07-29T05:00:29;5.30;;;3.47;;
8698;SDS011;4386;51.236;6.742;2022-07-29T05:01:34;4.77;;;3.23;;
8698;SDS011;4386;51.236;6.742;2022-07-29T05:02:35;4.00;;;3.23;;
8698;SDS011;4386;51.236;6.742;2022-07-29T05:03:38;5.37;;;3.83;;
8698;SDS011;4386;51.236;6.742;2022-07-29T05:04:41;7.80;;;3.13;;
8698;SDS011;4386;51.236;6.742;2022-07-29T05:05:44;8.00;;;3.50;;
8698;SDS011;4386;51.236;6.742;2022-07-29T05:06:46;8.07;;;3.20;;
8698;SDS011;4386;51.236;6.742;2022-07-29T05:07:49;12.73;;;3.70;;
8698;SDS011;4386;51.236;6.742;2022-07-29T05:08:51;6.00;;;3.63;;
8698;SDS011;4386;51.236;6.742;2022-07-29T05:09:53;5.33;;;3.20;;
8698;SDS011;4386;51.236;6.742;2022-07-29T05:10:57;4.17;;;3.63;;
8698;SDS011;4386;51.236;6.742;2022-07-29T05:12:13;4.67;;;3.73;;
8698;SDS011;4386;51.236;6.742;2022-07-29T05:13:14;12.23;;;3.77;;
8698;SDS011;4386;51.236;6.742;2022-07-29T05:14:17;6.30;;;3.40;;
8698;SDS011;4386;51.236;6.742;2022-07-29T05:15:20;7.17;;;3.90;;
8698;SDS011;4386;51.236;6.742;2022-07-29T05:16:22;4.63;;;4.10;;
8698;SDS011;4386;51.236;6.742;2022-07-29T05:17:24;12.00;;;3.67;;
8698;SDS011;4386;51.236;6.742;2022-07-29T05:18:27;7.30;;;4.30;;
8698;SDS011;4386;51.236;6.742;2022-07-29T05:19:29;8.53;;;3.47;;
8698;SDS011;4386;51.236;6.742;2022-07-29T05:20:32;7.73;;;3.30;;
8698;SDS011;4386;51.236;6.742;2022-07-29T05:21:36;5.50;;;3.70;;
8698;SDS011;4386;51.236;6.742;2022-07-29T05:22:39;9.67;;;3.70;;
8698;SDS011;4386;51.236;6.742;2022-07-29T05:23:40;6.70;;;4.00;;
8698;SDS011;4386;51.236;6.742;2022-07-29T05:24:43;11.83;;;4.60;;
8698;SDS011;4386;51.236;6.742;2022-07-29T05:25:45;5.03;;;3.87;;
8698;SDS011;4386;51.236;6.742;2022-07-29T05:26:48;5.83;;;3.70;;
8698;SDS011;4386;51.236;6.742;2022-07-29T05:27:49;6.50;;;3.53;;
8698;SDS011;4386;51.236;6.742;2022-07-29T05:28:52;9.70;;;3.90;;
8698;SDS011;4386;51.236;6.742;2022-07-29T05:29:54;6.57;;;3.93;;
8698;SDS011;4386;51.236;6.742;2022-07-29T05:30:57;7.10;;;3.40;;
8698;SDS011;4386;51.236;6.742;2022-07-29T05:31:59;9.43;;;3.80;;
8698;SDS011;4386;51.236;6.742;2022-07-29T05:33:01;7.60;;;3.63;;
8698;SDS011;4386;51.236;6.742;2022-07-29T05:34:03;3.70;;;3.40;;
8698;SDS011;4386;51.236;6.742;2022-07-29T05:35:06;14.50;;;4.53;;
8698;SDS011;4386;51.236;6.742;2022-07-29T05:36:08;9.70;;;3.90;;
8698;SDS011;4386;51.236;6.742;2022-07-29T05:37:12;7.00;;;3.80;;
8698;SDS011;4386;51.236;6.742;2022-07-29T05:38:14;10.53;;;4.10;;
8698;SDS011;4386;51.236;6.742;2022-07-29T05:39:17;16.87;;;3.33;;
8698;SDS011;4386;51.236;6.742;2022-07-29T05:40:19;8.67;;;4.40;;
8698;SDS011;4386;51.236;6.742;2022-07-29T05:41:22;6.73;;;4.00;;
8698;SDS011;4386;51.236;6.742;2022-07-29T05:42:24;5.67;;;3.63;;
8698;SDS011;4386;51.236;6.742;2022-07-29T05:43:28;7.80;;;3.60;;
8698;SDS011;4386;51.236;6.742;2022-07-29T05:44:30;6.50;;;3.67;;
8698;SDS011;4386;51.236;6.742;2022-07-29T05:45:33;5.77;;;3.77;;
8698;SDS011;4386;51.236;6.742;2022-07-29T05:46:49;6.93;;;4.00;;
8698;SDS011;4386;51.236;6.742;2022-07-29T05:47:52;5.80;;;3.43;;
8698;SDS011;4386;51.236;6.742;2022-07-29T05:48:53;5.17;;;4.00;;
8698;SDS011;4386;51.236;6.742;2022-07-29T05:49:57;5.40;;;4.10;;
8698;SDS011;4386;51.236;6.742;2022-07-29T05:50:58;6.10;;;4.40;;
8698;SDS011;4386;51.236;6.742;2022-07-29T05:52:01;14.43;;;4.83;;
8698;SDS011;4386;51.236;6.742;2022-07-29T05:53:04;5.20;;;3.90;;
8698;SDS011;4386;51.236;6.742;2022-07-29T05:54:20;5.17;;;3.50;;
8698;SDS011;4386;51.236;6.742;2022-07-29T05:55:23;6.37;;;3.40;;
8698;SDS011;4386;51.236;6.742;2022-07-29T05:56:24;4.17;;;3.30;;
8698;SDS011;4386;51.236;6.742;2022-07-29T05:57:27;7.53;;;3.67;;
8698;SDS011;4386;51.236;6.742;2022-07-29T05:58:29;6.57;;;4.07;;
8698;SDS011;4386;51.236;6.742;2022-07-29T05:59:34;5.47;;;3.43;;
8698;SDS011;4386;51.236;6.742;2022-07-29T06:00:37;5.47;;;3.20;;
8698;SDS011;4386;51.236;6.742;2022-07-29T06:01:39;4.27;;;3.40;;
8698;SDS011;4386;51.236;6.742;2022-07-29T06:02:42;3.70;;;3.17;;
8698;SDS011;4386;51.236;6.742;2022-07-29T06:03:44;7.57;;;3.80;;
8698;SDS011;4386;51.236;6.742;2022-07-29T06:04:47;10.20;;;3.93;;
8698;SDS011;4386;51.236;6.742;2022-07-29T06:05:49;7.60;;;4.07;;
8698;SDS011;4386;51.236;6.742;2022-07-29T06:06:52;10.67;;;3.33;;
8698;SDS011;4386;51.236;6.742;2022-07-29T06:07:54;7.30;;;3.70;;
8698;SDS011;4386;51.236;6.742;2022-07-29T06:08:57;9.63;;;3.83;;
8698;SDS011;4386;51.236;6.742;2022-07-29T06:09:59;4.97;;;3.80;;
8698;SDS011;4386;51.236;6.742;2022-07-29T06:11:02;8.83;;;3.70;;
8698;SDS011;4386;51.236;6.742;2022-07-29T06:12:05;5.40;;;4.20;;
8698;SDS011;4386;51.236;6.742;2022-07-29T06:13:08;5.67;;;3.70;;
8698;SDS011;4386;51.236;6.742;2022-07-29T06:14:10;4.70;;;3.30;;
8698;SDS011;4386;51.236;6.742;2022-07-29T06:15:13;5.63;;;4.27;;
8698;SDS011;4386;51.236;6.742;2022-07-29T06:16:14;6.30;;;4.20;;
8698;SDS011;4386;51.236;6.742;2022-07-29T06:17:30;5.30;;;3.53;;
8698;SDS011;4386;51.236;6.742;2022-07-29T06:18:33;3.80;;;3.50;;
8698;SDS011;4386;51.236;6.742;2022-07-29T06:19:34;7.63;;;4.27;;
8698;SDS011;4386;51.236;6.742;2022-07-29T06:20:37;7.07;;;3.87;;
8698;SDS011;4386;51.236;6.742;2022-07-29T06:21:41;6.10;;;4.00;;
8698;SDS011;4386;51.236;6.742;2022-07-29T06:22:44;8.77;;;3.67;;
8698;SDS011;4386;51.236;6.742;2022-07-29T06:23:46;7.10;;;4.00;;
8698;SDS011;4386;51.236;6.742;2022-07-29T06:24:50;3.30;;;2.93;;
8698;SDS011;4386;51.236;6.742;2022-07-29T06:25:52;4.40;;;3.70;;
8698;SDS011;4386;51.236;6.742;2022-07-29T06:26:54;8.57;;;3.80;;
8698;SDS011;4386;51.236;6.742;2022-07-29T06:27:57;3.93;;;3.10;;
8698;SDS011;4386;51.236;6.742;2022-07-29T06:29:00;9.23;;;3.40;;
8698;SDS011;4386;51.236;6.742;2022-07-29T06:30:03;5.73;;;3.40;;
8698;SDS011;4386;51.236;6.742;2022-07-29T06:31:07;8.20;;;3.67;;
8698;SDS011;4386;51.236;6.742;2022-07-29T06:32:10;8.03;;;4.03;;
8698;SDS011;4386;51.236;6.742;2022-07-29T06:33:15;8.00;;;3.80;;
8698;SDS011;4386;51.236;6.742;2022-07-29T06:34:18;7.87;;;3.70;;
8698;SDS011;4386;51.236;6.742;2022-07-29T06:35:21;6.83;;;3.80;;
8698;SDS011;4386;51.236;6.742;2022-07-29T06:36:39;5.33;;;3.23;;
8698;SDS011;4386;51.236;6.742;2022-07-29T06:37:43;7.23;;;3.83;;
8698;SDS011;4386;51.236;6.742;2022-07-29T06:38:46;10.40;;;3.43;;
8698;SDS011;4386;51.236;6.742;2022-07-29T06:39:53;5.80;;;3.53;;
8698;SDS011;4386;51.236;6.742;2022-07-29T06:41:10;5.07;;;3.23;;
8698;SDS011;4386;51.236;6.742;2022-07-29T06:42:13;9.63;;;3.60;;
8698;SDS011;4386;51.236;6.742;2022-07-29T06:43:15;15.00;;;4.30;;